Terminal Aerodrome Forecast
Issued by NWS

Home | Current Version | Previous Version | Text Only | Print | Product List | Glossary On
Versions: 1 2 3 4 5 6 7 8 9 10 11 12 13 14 15 16 17 18
000
FTUS43 KICT 312331
TAFRSL
TAF
KRSL 312331Z 0100/0124 16013KT 3SM -RA SCT007 OVC009
     FM010600 33017G24KT 4SM -SNRA SCT007 OVC009
     FM011000 34021G29KT P6SM SCT009 BKN015
     FM011400 34026G35KT P6SM BKN025
     FM011800 34026G35KT P6SM BKN035=

USA.gov is the U.S. government's official web portal to all federal, state and local government web resources and services.